Time,TemperatureF,DewpointF,PressureIn,WindDirection,WindDirectionDegrees,WindSpeedMPH,WindSpeedGustMPH,Humidity,HourlyPrecipIn,Conditions,Clouds,dailyrainin,SoftwareType,DateUTC
2013-04-17 00:05:00,41.1,35.0,30.27,North,352,0.0,0.0,78,0.00,,,0.00,weatherlink.com 1.10,2013-04-17 04:05:00,
2013-04-17 00:20:00,40.9,35.0,30.28,North,351,0.0,0.0,80,0.00,,,0.00,weatherlink.com 1.10,2013-04-17 04:20:00,
2013-04-17 00:35:00,41.2,36.0,30.29,North,351,0.0,0.0,80,0.00,,,0.00,weatherlink.com 1.10,2013-04-17 04:35:00,
2013-04-17 00:50:00,41.6,36.0,30.29,North,351,0.0,0.0,79,0.00,,,0.00,weatherlink.com 1.10,2013-04-17 04:50:00,
2013-04-17 01:05:00,42.2,36.0,30.29,North,351,0.0,0.0,79,0.00,,,0.00,weatherlink.com 1.10,2013-04-17 05:05:00,
2013-04-17 01:20:00,42.4,36.0,30.30,North,352,0.0,0.0,78,0.00,,,0.00,weatherlink.com 1.10,2013-04-17 05:20:00,
2013-04-17 01:35:00,42.8,36.0,30.30,North,355,0.0,1.0,77,0.00,,,0.00,weatherlink.com 1.10,2013-04-17 05:35:00,
2013-04-17 01:50:00,43.1,36.0,30.31,North,355,0.0,1.0,76,0.00,,,0.00,weatherlink.com 1.10,2013-04-17 05:50:00,
2013-04-17 02:05:00,43.3,36.0,30.31,NE,37,0.0,1.0,76,0.00,,,0.00,weatherlink.com 1.10,2013-04-17 06:05:00,
2013-04-17 02:20:00,43.3,36.0,30.31,North,355,0.0,1.0,76,0.00,,,0.00,weatherlink.com 1.10,2013-04-17 06:20:00,
2013-04-17 02:35:00,43.4,36.0,30.31,North,354,0.0,1.0,75,0.00,,,0.00,weatherlink.com 1.10,2013-04-17 06:35:00,
2013-04-17 02:50:00,43.8,36.0,30.32,NNE,15,1.0,1.0,74,0.00,,,0.00,weatherlink.com 1.10,2013-04-17 06:50:00,
2013-04-17 03:06:00,44.0,36.0,30.30,NE,44,0.0,2.0,73,0.00,,,0.00,weatherlink.com 1.10,2013-04-17 07:06:00,
2013-04-17 03:21:00,44.1,36.0,30.31,NNW,328,1.0,3.0,72,0.00,,,0.00,weatherlink.com 1.10,2013-04-17 07:21:00,
2013-04-17 03:36:00,44.3,36.0,30.32,North,355,0.0,2.0,72,0.00,,,0.00,weatherlink.com 1.10,2013-04-17 07:36:00,
2013-04-17 03:51:00,44.4,35.0,30.31,NNW,342,1.0,5.0,70,0.00,,,0.00,weatherlink.com 1.10,2013-04-17 07:51:00,
2013-04-17 04:06:00,44.5,35.0,30.31,North,6,2.0,2.0,70,0.00,,,0.00,weatherlink.com 1.10,2013-04-17 08:06:00,
2013-04-17 04:21:00,44.5,35.0,30.32,WNW,288,1.0,2.0,69,0.00,,,0.00,weatherlink.com 1.10,2013-04-17 08:21:00,
2013-04-17 04:36:00,44.5,35.0,30.32,NNE,23,1.0,3.0,69,0.00,,,0.00,weatherlink.com 1.10,2013-04-17 08:36:00,
2013-04-17 04:51:00,44.3,35.0,30.32,North,352,0.0,7.0,69,0.00,,,0.00,weatherlink.com 1.10,2013-04-17 08:51:00,
2013-04-17 05:06:00,44.1,34.0,30.32,NE,37,0.0,2.0,69,0.00,,,0.00,weatherlink.com 1.10,2013-04-17 09:06:00,
2013-04-17 05:36:00,43.6,35.0,30.31,NNE,27,2.0,3.0,72,0.00,,,0.00,weatherlink.com 1.10,2013-04-17 09:36:00,
2013-04-17 06:06:00,43.6,36.0,30.32,ENE,68,1.0,3.0,74,0.00,,,0.00,weatherlink.com 1.10,2013-04-17 10:06:00,
2013-04-17 06:21:00,43.3,36.0,30.32,NNW,337,2.0,4.0,75,0.00,,,0.00,weatherlink.com 1.10,2013-04-17 10:21:00,
2013-04-17 06:37:00,42.8,36.0,30.30,NNE,23,0.0,6.0,76,0.00,,,0.00,weatherlink.com 1.10,2013-04-17 10:37:00,
2013-04-17 06:51:00,42.1,35.0,30.31,East,88,1.0,4.0,77,0.00,,,0.00,weatherlink.com 1.10,2013-04-17 10:51:00,
2013-04-17 07:06:00,41.6,36.0,30.31,NW,319,0.0,3.0,79,0.00,,,0.00,weatherlink.com 1.10,2013-04-17 11:06:00,
2013-04-17 07:21:00,41.3,35.0,30.31,NE,54,3.0,3.0,78,0.00,,,0.00,weatherlink.com 1.10,2013-04-17 11:21:00,
2013-04-17 07:36:00,41.7,35.0,30.31,North,5,1.0,3.0,77,0.00,,,0.00,weatherlink.com 1.10,2013-04-17 11:36:00,
2013-04-17 08:06:00,42.8,34.0,30.30,ENE,76,0.0,6.0,71,0.00,,,0.00,weatherlink.com 1.10,2013-04-17 12:06:00,
2013-04-17 08:21:00,43.5,34.0,30.33,NNE,22,5.0,5.0,69,0.00,,,0.00,weatherlink.com 1.10,2013-04-17 12:21:00,
2013-04-17 08:36:00,43.7,34.0,30.32,NE,35,1.0,7.0,68,0.00,,,0.00,weatherlink.com 1.10,2013-04-17 12:36:00,
2013-04-17 08:51:00,44.7,34.0,30.32,SSE,164,1.0,6.0,66,0.00,,,0.00,weatherlink.com 1.10,2013-04-17 12:51:00,
2013-04-17 09:06:00,45.7,34.0,30.31,SSE,165,3.0,8.0,64,0.00,,,0.00,weatherlink.com 1.10,2013-04-17 13:06:00,
2013-04-17 09:21:00,46.4,35.0,30.31,SW,233,3.0,5.0,65,0.00,,,0.00,weatherlink.com 1.10,2013-04-17 13:21:00,
2013-04-17 09:36:00,48.0,35.0,30.32,ENE,67,1.0,5.0,61,0.00,,,0.00,weatherlink.com 1.10,2013-04-17 13:36:00,
2013-04-17 09:51:00,49.0,35.0,30.29,ENE,57,1.0,6.0,60,0.00,,,0.00,weatherlink.com 1.10,2013-04-17 13:51:00,
2013-04-17 10:06:00,49.6,36.0,30.29,SE,146,2.0,10.0,60,0.00,,,0.00,weatherlink.com 1.10,2013-04-17 14:06:00,
2013-04-17 10:21:00,50.5,36.0,30.29,SE,138,3.0,10.0,58,0.00,,,0.00,weatherlink.com 1.10,2013-04-17 14:21:00,
2013-04-17 10:36:00,50.3,36.0,30.29,ENE,77,4.0,11.0,58,0.00,,,0.00,weatherlink.com 1.10,2013-04-17 14:36:00,
2013-04-17 10:51:00,50.8,37.0,30.30,ENE,71,2.0,7.0,59,0.00,,,0.00,weatherlink.com 1.10,2013-04-17 14:51:00,
2013-04-17 11:06:00,52.1,38.0,30.29,SSW,207,3.0,8.0,58,0.00,,,0.00,weatherlink.com 1.10,2013-04-17 15:06:00,
2013-04-17 11:21:00,52.6,38.0,30.30,SSE,148,5.0,10.0,58,0.00,,,0.00,weatherlink.com 1.10,2013-04-17 15:21:00,
2013-04-17 11:36:00,52.8,37.0,30.29,South,172,3.0,8.0,56,0.00,,,0.00,weatherlink.com 1.10,2013-04-17 15:36:00,
2013-04-17 11:51:00,52.8,38.0,30.29,SSE,163,1.0,5.0,58,0.00,,,0.00,weatherlink.com 1.10,2013-04-17 15:51:00,
2013-04-17 12:06:00,52.3,39.0,30.30,NNE,32,2.0,7.0,60,0.00,,,0.00,weatherlink.com 1.10,2013-04-17 16:06:00,
2013-04-17 12:21:00,52.2,38.0,30.30,NNW,343,3.0,5.0,59,0.00,,,0.00,weatherlink.com 1.10,2013-04-17 16:21:00,
2013-04-17 12:37:00,52.9,39.0,30.30,SSE,149,3.0,5.0,59,0.00,,,0.00,weatherlink.com 1.10,2013-04-17 16:37:00,
2013-04-17 12:51:00,53.3,39.0,30.26,East,96,1.0,5.0,58,0.00,,,0.00,weatherlink.com 1.10,2013-04-17 16:51:00,
2013-04-17 13:07:00,55.6,39.0,30.23,SE,143,2.0,8.0,55,0.00,,,0.00,weatherlink.com 1.10,2013-04-17 17:07:00,
2013-04-17 13:22:00,56.0,40.0,30.21,ESE,108,2.0,9.0,56,0.00,,,0.00,weatherlink.com 1.10,2013-04-17 17:22:00,
2013-04-17 13:37:00,54.9,40.0,30.21,South,187,8.0,12.0,57,0.00,,,0.00,weatherlink.com 1.10,2013-04-17 17:37:00,
2013-04-17 13:52:00,54.3,39.0,30.20,SSW,201,4.0,14.0,57,0.00,,,0.00,weatherlink.com 1.10,2013-04-17 17:52:00,
2013-04-17 14:07:00,54.5,40.0,30.21,NNE,20,0.0,7.0,58,0.00,,,0.00,weatherlink.com 1.10,2013-04-17 18:07:00,
2013-04-17 14:22:00,53.7,41.0,30.21,ESE,115,0.0,6.0,62,0.00,,,0.00,weatherlink.com 1.10,2013-04-17 18:22:00,
2013-04-17 14:37:00,53.4,43.0,30.19,WSW,246,1.0,5.0,67,0.00,,,0.00,weatherlink.com 1.10,2013-04-17 18:37:00,
2013-04-17 14:52:00,53.0,44.0,30.17,ENE,70,0.0,8.0,71,0.01,,,0.01,weatherlink.com 1.10,2013-04-17 18:52:00,
2013-04-17 15:07:00,52.8,44.0,30.14,ENE,72,3.0,3.0,71,0.01,,,0.01,weatherlink.com 1.10,2013-04-17 19:07:00,
2013-04-17 15:22:00,53.6,43.0,30.14,South,183,6.0,11.0,68,0.01,,,0.01,weatherlink.com 1.10,2013-04-17 19:22:00,
2013-04-17 15:37:00,53.2,43.0,30.15,SE,143,4.0,8.0,68,0.01,,,0.01,weatherlink.com 1.10,2013-04-17 19:37:00,
2013-04-17 15:52:00,51.9,44.0,30.15,North,8,1.0,5.0,75,0.01,,,0.02,weatherlink.com 1.10,2013-04-17 19:52:00,
2013-04-17 16:07:00,51.4,45.0,30.17,NW,319,0.0,1.0,78,0.01,,,0.02,weatherlink.com 1.10,2013-04-17 20:07:00,
2013-04-17 16:22:00,50.7,47.0,30.14,NW,319,0.0,0.0,86,0.02,,,0.03,weatherlink.com 1.10,2013-04-17 20:22:00,
2013-04-17 16:37:00,50.4,45.0,30.11,ENE,68,3.0,5.0,83,0.04,,,0.05,weatherlink.com 1.10,2013-04-17 20:37:00,
2013-04-17 16:52:00,49.9,45.0,30.09,SE,141,2.0,7.0,82,0.03,,,0.05,weatherlink.com 1.10,2013-04-17 20:52:00,
2013-04-17 17:07:00,49.6,45.0,30.09,WSW,249,1.0,7.0,83,0.04,,,0.06,weatherlink.com 1.10,2013-04-17 21:07:00,
2013-04-17 17:22:00,49.7,44.0,30.08,SSE,152,4.0,10.0,82,0.03,,,0.06,weatherlink.com 1.10,2013-04-17 21:22:00,
2013-04-17 17:37:00,50.0,45.0,30.12,NW,307,1.0,8.0,82,0.01,,,0.06,weatherlink.com 1.10,2013-04-17 21:37:00,
2013-04-17 17:52:00,49.8,44.0,30.13,SE,130,2.0,7.0,81,0.01,,,0.06,weatherlink.com 1.10,2013-04-17 21:52:00,
2013-04-17 18:07:00,49.5,45.0,30.13,NE,53,0.0,4.0,84,0.03,,,0.09,weatherlink.com 1.10,2013-04-17 22:07:00,
2013-04-17 18:22:00,47.9,45.0,30.14,ESE,121,0.0,4.0,90,0.09,,,0.15,weatherlink.com 1.10,2013-04-17 22:22:00,
2013-04-17 18:37:00,47.3,45.0,30.11,NNE,19,2.0,3.0,92,0.09,,,0.15,weatherlink.com 1.10,2013-04-17 22:37:00,
2013-04-17 18:52:00,47.1,45.0,30.12,NNW,333,1.0,4.0,93,0.12,,,0.18,weatherlink.com 1.10,2013-04-17 22:52:00,
2013-04-17 19:07:00,46.9,46.0,30.13,WNW,296,4.0,6.0,95,0.12,,,0.21,weatherlink.com 1.10,2013-04-17 23:07:00,
2013-04-17 19:22:00,46.6,45.0,30.10,East,94,1.0,6.0,95,0.27,,,0.42,weatherlink.com 1.10,2013-04-17 23:22:00,
2013-04-17 19:37:00,46.5,45.0,30.11,NW,314,3.0,8.0,95,0.38,,,0.53,weatherlink.com 1.10,2013-04-17 23:37:00,
2013-04-17 19:52:00,46.5,46.0,30.17,NW,321,2.0,3.0,96,0.39,,,0.57,weatherlink.com 1.10,2013-04-17 23:52:00,
2013-04-17 20:07:00,46.5,46.0,30.16,SE,139,2.0,2.0,96,0.37,,,0.58,weatherlink.com 1.10,2013-04-18 00:07:00,
2013-04-17 20:22:00,46.3,45.0,30.10,SSE,158,2.0,8.0,96,0.23,,,0.66,weatherlink.com 1.10,2013-04-18 00:22:00,
2013-04-17 20:37:00,46.2,45.0,30.07,South,174,2.0,9.0,96,0.15,,,0.68,weatherlink.com 1.10,2013-04-18 00:37:00,
2013-04-17 20:52:00,46.2,45.0,30.06,ESE,107,4.0,13.0,95,0.13,,,0.70,weatherlink.com 1.10,2013-04-18 00:52:00,
2013-04-17 21:07:00,46.1,45.0,30.06,SSE,156,6.0,9.0,95,0.12,,,0.70,weatherlink.com 1.10,2013-04-18 01:07:00,
2013-04-17 21:22:00,46.0,44.0,30.04,ESE,118,3.0,10.0,94,0.04,,,0.70,weatherlink.com 1.10,2013-04-18 01:22:00,
2013-04-17 21:52:00,45.7,44.0,30.04,ENE,64,2.0,15.0,93,0.00,,,0.70,weatherlink.com 1.10,2013-04-18 01:52:00,
2013-04-17 22:07:00,45.7,44.0,30.04,SE,131,4.0,10.0,93,0.00,,,0.70,weatherlink.com 1.10,2013-04-18 02:07:00,
2013-04-17 22:22:00,45.7,44.0,30.02,ESE,107,3.0,11.0,93,0.00,,,0.70,weatherlink.com 1.10,2013-04-18 02:22:00,
2013-04-17 22:38:00,45.8,44.0,30.01,SW,214,1.0,7.0,93,0.00,,,0.70,weatherlink.com 1.10,2013-04-18 02:38:00,
2013-04-17 22:53:00,45.8,44.0,30.01,South,170,3.0,11.0,93,0.00,,,0.70,weatherlink.com 1.10,2013-04-18 02:53:00,
2013-04-17 23:08:00,45.7,44.0,29.99,SSW,197,2.0,10.0,93,0.00,,,0.70,weatherlink.com 1.10,2013-04-18 03:08:00,
2013-04-17 23:23:00,45.7,44.0,30.02,South,179,4.0,10.0,94,0.00,,,0.70,weatherlink.com 1.10,2013-04-18 03:23:00,
2013-04-17 23:38:00,45.5,44.0,29.98,SSE,166,4.0,10.0,94,0.01,,,0.71,weatherlink.com 1.10,2013-04-18 03:38:00,
2013-04-17 23:53:00,45.5,45.0,29.95,SE,131,0.0,5.0,96,0.05,,,0.75,weatherlink.com 1.10,2013-04-18 03:53:00,